createdAt,value
2019-02-05T00:01:24.341Z,1.38
2019-02-05T00:03:52.477Z,1.39
2019-02-05T00:06:21.028Z,1.52
2019-02-05T00:08:49.203Z,1.54
2019-02-05T00:11:17.371Z,1.48
2019-02-05T00:13:45.347Z,1.39
2019-02-05T00:16:13.450Z,1.39
2019-02-05T00:18:41.486Z,1.42
2019-02-05T00:21:09.496Z,1.34
2019-02-05T00:23:37.498Z,1.38
2019-02-05T00:26:06.550Z,1.33
2019-02-05T00:28:34.769Z,1.41
2019-02-05T00:31:02.817Z,1.19
2019-02-05T00:33:30.915Z,1.37
2019-02-05T00:35:58.883Z,1.40
2019-02-05T00:38:27.549Z,1.35
2019-02-05T00:40:55.573Z,1.43
2019-02-05T00:43:23.584Z,1.47
2019-02-05T00:45:51.601Z,1.42
2019-02-05T00:48:19.759Z,1.35
2019-02-05T00:50:47.773Z,1.31
2019-02-05T00:53:16.039Z,1.31
2019-02-05T00:55:44.558Z,1.27
2019-02-05T00:58:12.522Z,1.15
2019-02-05T01:00:40.520Z,1.22
2019-02-05T01:03:08.485Z,1.20
2019-02-05T01:05:36.497Z,1.14
2019-02-05T01:08:04.524Z,1.15
2019-02-05T01:10:32.552Z,1.17
2019-02-05T01:13:00.506Z,1.03
2019-02-05T01:15:28.562Z,1.10
2019-02-05T01:17:56.580Z,1.10
2019-02-05T01:20:24.677Z,1.08
2019-02-05T01:22:52.698Z,0.99
2019-02-05T01:25:20.869Z,0.90
2019-02-05T01:27:49.203Z,0.85
2019-02-05T01:30:20.353Z,0.75
2019-02-05T01:32:48.463Z,0.81
2019-02-05T01:35:16.462Z,0.82
2019-02-05T01:37:44.491Z,0.80
2019-02-05T01:40:14.889Z,0.72
2019-02-05T01:42:43.261Z,0.69
2019-02-05T01:45:14.876Z,0.69
2019-02-05T01:47:43.160Z,0.70
2019-02-05T01:50:13.313Z,0.59
2019-02-05T01:52:41.357Z,0.52
2019-02-05T01:55:10.069Z,0.57
2019-02-05T01:57:38.381Z,0.51
2019-02-05T02:00:10.147Z,0.49
2019-02-05T02:02:38.130Z,0.51
2019-02-05T02:05:06.206Z,0.51
2019-02-05T02:07:34.229Z,0.62
2019-02-05T02:10:02.192Z,0.57
2019-02-05T02:12:30.419Z,0.56
2019-02-05T02:14:59.405Z,0.55
2019-02-05T02:17:27.422Z,0.49
2019-02-05T02:19:55.496Z,0.35
2019-02-05T02:22:23.482Z,0.40
2019-02-05T02:24:51.933Z,0.40
2019-02-05T02:27:20.910Z,0.40
2019-02-05T02:29:49.350Z,0.38
2019-02-05T02:32:17.360Z,0.30
2019-02-05T02:34:45.358Z,0.31
2019-02-05T02:37:13.601Z,0.32
2019-02-05T02:39:41.853Z,0.43
2019-02-05T02:42:10.027Z,0.39
2019-02-05T02:44:38.090Z,0.28
2019-02-05T02:47:06.562Z,0.24
2019-02-05T02:49:34.789Z,0.30
2019-02-05T02:52:03.168Z,0.45
2019-02-05T02:54:31.310Z,0.37
2019-02-05T02:57:04.954Z,0.23
2019-02-05T02:59:29.146Z,0.22
2019-02-05T03:01:57.520Z,0.28
2019-02-05T03:04:25.579Z,0.23
2019-02-05T03:06:54.412Z,0.20
2019-02-05T03:09:23.802Z,0.30
2019-02-05T03:11:52.168Z,0.25
2019-02-05T03:14:20.168Z,0.11
2019-02-05T03:16:48.137Z,0.08
2019-02-05T03:19:16.460Z,0.03
2019-02-05T03:21:44.761Z,0.04
2019-02-05T03:24:12.731Z,-0.01
2019-02-05T03:26:40.713Z,0.07
2019-02-05T03:29:09.060Z,0.07
2019-02-05T03:31:37.117Z,0.02
2019-02-05T03:34:05.177Z,0.02
2019-02-05T03:36:33.134Z,-0.05
2019-02-05T03:39:01.145Z,-0.21
2019-02-05T03:41:30.931Z,-0.26
2019-02-05T03:43:58.937Z,-0.33
2019-02-05T03:46:28.187Z,-0.29
2019-02-05T03:48:56.414Z,-0.23
2019-02-05T03:52:13.539Z,-0.27
2019-02-05T03:55:30.733Z,-0.22
2019-02-05T03:58:28.879Z,-0.27
2019-02-05T04:02:25.096Z,-0.25
2019-02-05T04:05:34.846Z,-0.15
2019-02-05T04:08:28.011Z,-0.08
2019-02-05T04:12:03.478Z,-0.40
2019-02-05T04:15:23.578Z,-0.35
2019-02-05T04:18:34.941Z,-0.25
2019-02-05T04:22:04.170Z,-0.15
2019-02-05T04:25:36.349Z,-0.27
2019-02-05T04:28:39.122Z,-0.38
2019-02-05T04:31:59.414Z,-0.44
2019-02-05T04:35:31.440Z,-0.62
2019-02-05T04:38:35.067Z,-0.81
2019-02-05T04:41:30.687Z,-0.87
2019-02-05T04:44:24.484Z,-0.97
2019-02-05T04:47:54.121Z,-1.02
2019-02-05T04:51:01.867Z,-0.89
2019-02-05T04:54:03.049Z,-0.81
2019-02-05T04:57:06.228Z,-0.82
2019-02-05T05:00:27.933Z,-0.89
2019-02-05T05:04:21.443Z,-0.91
2019-02-05T05:07:30.490Z,-1.13
2019-02-05T05:10:01.616Z,-1.21
2019-02-05T05:12:30.844Z,-1.20
2019-02-05T05:14:59.561Z,-1.10
2019-02-05T05:17:27.649Z,-1.26
2019-02-05T05:19:55.731Z,-1.17
2019-02-05T05:22:23.970Z,-1.26
2019-02-05T05:24:51.921Z,-1.28
2019-02-05T05:27:21.060Z,-1.34
2019-02-05T05:29:49.082Z,-1.23
2019-02-05T05:32:17.138Z,-1.21
2019-02-05T05:34:45.190Z,-1.25
2019-02-05T05:37:11.655Z,-1.33
2019-02-05T05:39:39.612Z,-1.37
2019-02-05T05:42:07.571Z,-1.39
2019-02-05T05:44:35.839Z,-1.52
2019-02-05T05:47:04.286Z,-1.49
2019-02-05T05:49:32.757Z,-1.42
2019-02-05T05:52:00.980Z,-1.42
2019-02-05T05:54:29.047Z,-1.39
2019-02-05T05:56:57.063Z,-1.32
2019-02-05T05:59:25.166Z,-1.37
2019-02-05T06:01:53.233Z,-1.29
2019-02-05T06:04:21.669Z,-1.30
2019-02-05T06:06:49.945Z,-1.37
2019-02-05T06:09:17.880Z,-1.33
2019-02-05T06:11:45.884Z,-1.40
2019-02-05T06:14:13.889Z,-1.42
2019-02-05T06:16:42.088Z,-1.41
2019-02-05T06:19:10.098Z,-1.42
2019-02-05T06:21:38.352Z,-1.48
2019-02-05T06:24:06.649Z,-1.48
2019-02-05T06:26:34.660Z,-1.47
2019-02-05T06:29:02.863Z,-1.36
2019-02-05T06:31:30.898Z,-1.42
2019-02-05T06:33:58.916Z,-1.45
2019-02-05T06:36:26.913Z,-1.53
2019-02-05T06:38:54.975Z,-1.58
2019-02-05T06:41:23.290Z,-1.51
2019-02-05T06:43:51.322Z,-1.48
2019-02-05T06:46:19.293Z,-1.48
2019-02-05T06:48:47.319Z,-1.52
2019-02-05T06:51:15.336Z,-1.47
2019-02-05T06:53:43.637Z,-1.53
2019-02-05T06:56:11.624Z,-1.35
2019-02-05T06:58:46.508Z,-1.17
2019-02-05T07:01:09.728Z,-1.06
2019-02-05T07:03:37.681Z,-0.91
2019-02-05T07:06:05.789Z,-0.87
2019-02-05T07:08:33.771Z,-0.84
2019-02-05T07:11:01.726Z,-1.02
2019-02-05T07:13:29.871Z,-1.03
2019-02-05T07:15:58.165Z,-1.09
2019-02-05T07:18:26.251Z,-1.12
2019-02-05T07:20:54.228Z,-1.11
2019-02-05T07:23:22.217Z,-1.00
2019-02-05T07:25:50.393Z,-0.99
2019-02-05T07:28:24.867Z,-1.05
2019-02-05T07:30:53.276Z,-0.93
2019-02-05T07:33:21.672Z,-0.64
2019-02-05T07:35:49.742Z,-0.57
2019-02-05T07:38:17.819Z,-0.59
2019-02-05T07:40:45.881Z,-0.34
2019-02-05T07:43:14.024Z,-0.39
2019-02-05T07:45:41.983Z,-0.28
2019-02-05T07:48:10.070Z,-0.08
2019-02-05T07:50:38.129Z,-0.23
2019-02-05T07:53:06.448Z,-0.14
2019-02-05T07:55:34.454Z,0.01
2019-02-05T07:58:02.501Z,0.28
2019-02-05T08:00:30.708Z,0.38
2019-02-05T08:02:59.475Z,0.42
2019-02-05T08:05:30.124Z,0.52
2019-02-05T08:07:58.478Z,0.67
2019-02-05T08:10:26.932Z,0.72
2019-02-05T08:12:54.887Z,0.84
2019-02-05T08:15:25.689Z,0.93
2019-02-05T08:17:53.648Z,0.87
2019-02-05T08:20:22.295Z,0.80
2019-02-05T08:22:50.504Z,0.87
2019-02-05T08:25:19.081Z,0.89
2019-02-05T08:27:47.093Z,1.13
2019-02-05T08:30:28.097Z,1.11
2019-02-05T08:32:57.351Z,1.33
2019-02-05T08:35:25.626Z,1.56
2019-02-05T08:37:53.652Z,1.69
2019-02-05T08:40:22.646Z,1.65
2019-02-05T08:42:50.789Z,1.76
2019-02-05T08:45:21.456Z,1.61
2019-02-05T08:47:49.559Z,1.80
2019-02-05T08:50:23.366Z,2.11
2019-02-05T08:52:52.381Z,1.93
2019-02-05T08:55:20.480Z,2.05
2019-02-05T08:57:49.652Z,2.03
2019-02-05T09:00:21.498Z,2.24
2019-02-05T09:02:49.801Z,2.46
2019-02-05T09:05:18.175Z,2.47
2019-02-05T09:07:46.457Z,2.59
2019-02-05T09:10:19.542Z,2.51
2019-02-05T09:12:49.552Z,2.69
2019-02-05T09:15:28.889Z,2.84
2019-02-05T09:17:47.875Z,2.94
2019-02-05T09:20:16.631Z,3.00
2019-02-05T09:22:45.016Z,2.89
2019-02-05T09:25:13.191Z,2.64
2019-02-05T09:27:41.209Z,2.87
2019-02-05T09:30:13.831Z,3.06
2019-02-05T09:32:41.840Z,3.03
2019-02-05T09:35:10.248Z,3.02
2019-02-05T09:37:38.303Z,3.05
2019-02-05T09:40:08.939Z,3.18
2019-02-05T09:42:37.313Z,3.29
2019-02-05T09:45:06.715Z,3.43
2019-02-05T09:47:34.712Z,3.53
2019-02-05T09:50:03.216Z,3.96
2019-02-05T09:52:31.585Z,3.96
2019-02-05T09:54:59.976Z,4.13
2019-02-05T09:57:28.251Z,4.00
2019-02-05T09:59:56.246Z,4.15
2019-02-05T10:02:24.213Z,4.10
2019-02-05T10:04:52.461Z,4.22
2019-02-05T10:07:20.452Z,4.34
2019-02-05T10:09:48.763Z,4.56
2019-02-05T10:12:16.786Z,4.74
2019-02-05T10:14:45.014Z,4.91
2019-02-05T10:17:12.998Z,4.83
2019-02-05T10:19:41.097Z,4.86
2019-02-05T10:22:09.173Z,4.88
2019-02-05T10:24:37.464Z,4.98
2019-02-05T10:27:05.991Z,5.04
2019-02-05T10:29:34.563Z,4.82
2019-02-05T10:32:02.646Z,4.88
2019-02-05T10:34:34.161Z,5.08
2019-02-05T10:37:00.835Z,5.26
2019-02-05T10:39:28.845Z,5.22
2019-02-05T10:41:56.852Z,5.16
2019-02-05T10:44:24.879Z,5.39
2019-02-05T10:46:53.349Z,5.66
2019-02-05T10:49:21.375Z,5.54
2019-02-05T10:51:49.597Z,5.76
2019-02-05T10:54:17.998Z,5.77
2019-02-05T10:56:47.384Z,5.83
2019-02-05T10:59:15.735Z,5.54
2019-02-05T11:01:43.678Z,5.83
2019-02-05T11:04:12.130Z,5.93
2019-02-05T11:06:40.197Z,6.27
2019-02-05T11:09:09.999Z,6.25
2019-02-05T11:11:38.085Z,6.50
2019-02-05T11:14:06.395Z,6.65
2019-02-05T11:16:34.854Z,6.69
2019-02-05T11:19:02.854Z,6.94
2019-02-05T11:21:30.869Z,7.24
2019-02-05T11:24:00.800Z,7.20
2019-02-05T11:26:28.808Z,7.43
2019-02-05T11:28:56.792Z,7.48
2019-02-05T11:31:24.944Z,7.72
2019-02-05T11:33:53.117Z,7.23
2019-02-05T11:36:21.690Z,6.80
2019-02-05T11:38:49.816Z,7.10
2019-02-05T11:41:18.124Z,7.78
2019-02-05T11:43:46.215Z,7.73
2019-02-05T11:46:14.445Z,8.22
2019-02-05T11:48:42.476Z,8.40
2019-02-05T11:51:10.518Z,8.33
2019-02-05T11:53:38.753Z,8.11
2019-02-05T11:56:06.965Z,8.37
2019-02-05T11:58:35.194Z,8.25
2019-02-05T12:01:10.690Z,8.47
2019-02-05T12:03:38.623Z,9.07
2019-02-05T12:06:06.882Z,8.88
2019-02-05T12:08:34.864Z,8.94
2019-02-05T12:11:02.861Z,9.11
2019-02-05T12:13:30.844Z,9.11
2019-02-05T12:15:59.096Z,9.20
2019-02-05T12:18:27.224Z,9.08
2019-02-05T12:20:55.247Z,9.07
2019-02-05T12:23:23.545Z,9.42
2019-02-05T12:25:51.555Z,9.35
2019-02-05T12:28:19.650Z,9.37
2019-02-05T12:30:47.809Z,9.36
2019-02-05T12:33:15.754Z,9.50
2019-02-05T12:35:44.260Z,8.98
2019-02-05T12:38:12.554Z,9.29
2019-02-05T12:40:40.561Z,9.17
2019-02-05T12:43:08.518Z,8.85
2019-02-05T12:45:37.508Z,8.76
2019-02-05T12:48:06.004Z,9.24
2019-02-05T12:50:35.247Z,9.21
2019-02-05T12:53:03.535Z,9.49
2019-02-05T12:55:31.815Z,9.23
2019-02-05T12:58:00.067Z,9.56
2019-02-05T13:00:40.044Z,9.87
2019-02-05T13:03:10.288Z,9.81
2019-02-05T13:05:38.399Z,9.56
2019-02-05T13:08:06.471Z,9.22
2019-02-05T13:10:37.691Z,9.87
2019-02-05T13:13:06.986Z,9.89
2019-02-05T13:15:35.025Z,9.53
2019-02-05T13:18:03.029Z,9.71
2019-02-05T13:20:31.185Z,9.67
2019-02-05T13:23:02.091Z,9.76
2019-02-05T13:25:30.420Z,10.14
2019-02-05T13:27:58.450Z,10.50
2019-02-05T13:30:29.011Z,11.34
2019-02-05T13:32:56.943Z,12.91
2019-02-05T13:35:24.998Z,14.43
2019-02-05T13:37:53.700Z,15.61
2019-02-05T13:40:23.510Z,16.00
2019-02-05T13:42:52.429Z,16.32
2019-02-05T13:45:23.503Z,16.80
2019-02-05T13:47:51.535Z,17.60
2019-02-05T13:50:32.373Z,18.05
2019-02-05T13:52:55.085Z,16.86
2019-02-05T13:55:29.020Z,17.10
2019-02-05T13:57:56.988Z,19.59
2019-02-05T14:00:37.623Z,20.31
2019-02-05T14:03:07.178Z,21.70
2019-02-05T14:05:35.253Z,19.72
2019-02-05T14:08:03.273Z,18.25
2019-02-05T14:10:31.638Z,20.51
2019-02-05T14:12:59.656Z,21.17
2019-02-05T14:15:31.205Z,22.16
2019-02-05T14:17:59.353Z,22.36
2019-02-05T14:20:27.363Z,23.01
2019-02-05T14:22:55.434Z,21.88
2019-02-05T14:25:23.514Z,21.86
2019-02-05T14:27:51.511Z,21.62
2019-02-05T14:30:44.620Z,20.37
2019-02-05T14:33:12.640Z,20.80
2019-02-05T14:35:40.934Z,21.52
2019-02-05T14:38:09.412Z,21.55
2019-02-05T14:40:37.464Z,20.04
2019-02-05T14:43:06.411Z,20.28
2019-02-05T14:45:34.500Z,19.67
2019-02-05T14:48:02.891Z,21.59
2019-02-05T14:50:31.719Z,21.55
2019-02-05T14:52:59.667Z,21.50
2019-02-05T14:55:28.048Z,20.29
2019-02-05T14:57:56.485Z,18.09
2019-02-05T15:00:27.911Z,18.48
2019-02-05T15:02:57.567Z,16.79
2019-02-05T15:05:25.721Z,17.49
2019-02-05T15:07:54.056Z,15.75
2019-02-05T15:10:22.848Z,17.38
2019-02-05T15:12:51.149Z,18.22
2019-02-05T15:15:19.329Z,19.07
2019-02-05T15:17:47.780Z,20.48
2019-02-05T15:20:25.945Z,21.35
2019-02-05T15:22:53.927Z,20.97
2019-02-05T15:25:22.034Z,19.67
2019-02-05T15:27:50.071Z,15.94
2019-02-05T15:30:24.974Z,12.95
2019-02-05T15:33:12.617Z,13.47
2019-02-05T15:35:45.417Z,11.94
2019-02-05T15:38:13.487Z,11.28
2019-02-05T15:40:41.530Z,10.53
2019-02-05T15:43:09.499Z,10.40
2019-02-05T15:45:37.557Z,9.90
2019-02-05T15:48:05.646Z,10.00
2019-02-05T15:50:33.650Z,9.71
2019-02-05T15:53:01.753Z,9.41
2019-02-05T15:55:30.044Z,9.17
2019-02-05T15:57:58.338Z,8.63
2019-02-05T16:00:26.452Z,8.38
2019-02-05T16:02:54.535Z,8.20
2019-02-05T16:05:22.655Z,8.26
2019-02-05T16:07:50.939Z,8.16
2019-02-05T16:10:19.012Z,8.07
2019-02-05T16:12:47.083Z,7.92
2019-02-05T16:15:15.280Z,7.52
2019-02-05T16:17:43.268Z,7.22
2019-02-05T16:20:11.477Z,7.19
2019-02-05T16:22:39.562Z,6.97
2019-02-05T16:25:09.996Z,6.89
2019-02-05T16:27:37.996Z,6.78
2019-02-05T16:30:12.930Z,6.66
2019-02-05T16:32:41.093Z,6.39
2019-02-05T16:35:09.218Z,6.31
2019-02-05T16:37:37.267Z,6.13
2019-02-05T16:40:10.887Z,6.02
2019-02-05T16:42:38.908Z,5.97
2019-02-05T16:45:10.297Z,5.95
2019-02-05T16:47:38.394Z,5.69
2019-02-05T16:50:12.006Z,5.41
2019-02-05T16:52:40.063Z,5.38
2019-02-05T16:55:08.108Z,5.35
2019-02-05T16:57:36.201Z,5.39
2019-02-05T17:00:19.244Z,5.51
2019-02-05T17:02:47.303Z,5.16
2019-02-05T17:05:15.444Z,5.01
2019-02-05T17:07:43.765Z,4.90
2019-02-05T17:10:13.538Z,4.75
2019-02-05T17:12:41.977Z,4.77
2019-02-05T17:15:11.640Z,4.58
2019-02-05T17:17:39.743Z,4.48
2019-02-05T17:20:11.907Z,4.52
2019-02-05T17:22:40.239Z,4.51
2019-02-05T17:25:10.874Z,4.49
2019-02-05T17:27:39.383Z,4.32
2019-02-05T17:30:11.606Z,4.30
2019-02-05T17:32:40.525Z,4.11
2019-02-05T17:35:08.901Z,3.94
2019-02-05T17:37:36.906Z,4.04
2019-02-05T17:40:06.596Z,4.15
2019-02-05T17:42:34.855Z,4.19
2019-02-05T17:45:03.413Z,4.11
2019-02-05T17:47:31.526Z,4.04
2019-02-05T17:49:59.870Z,3.98
2019-02-05T17:52:27.926Z,3.84
2019-02-05T17:54:56.075Z,3.86
2019-02-05T17:57:24.182Z,3.88
2019-02-05T17:59:52.866Z,3.65
2019-02-05T18:02:21.103Z,3.75
2019-02-05T18:04:49.055Z,3.78
2019-02-05T18:07:17.460Z,3.75
2019-02-05T18:09:45.622Z,3.78
2019-02-05T18:12:13.746Z,3.68
2019-02-05T18:14:41.946Z,3.58
2019-02-05T18:17:10.292Z,3.49
2019-02-05T18:19:38.670Z,3.38
2019-02-05T18:22:08.051Z,3.36
2019-02-05T18:24:36.278Z,3.42
2019-02-05T18:27:05.744Z,3.32
2019-02-05T18:29:33.779Z,3.29
2019-02-05T18:32:02.223Z,3.27
2019-02-05T18:34:30.281Z,3.27
2019-02-05T18:36:58.425Z,3.30
2019-02-05T18:39:26.679Z,3.15
2019-02-05T18:41:55.055Z,2.98
2019-02-05T18:44:23.064Z,2.88
2019-02-05T18:46:51.271Z,2.80
2019-02-05T18:49:19.411Z,2.82
2019-02-05T18:51:47.530Z,2.86
2019-02-05T18:54:15.818Z,2.80
2019-02-05T18:56:43.789Z,2.94
2019-02-05T18:59:12.013Z,2.89
2019-02-05T19:01:40.175Z,2.83
2019-02-05T19:04:08.362Z,2.76
2019-02-05T19:06:36.585Z,2.75
2019-02-05T19:09:12.717Z,2.75
2019-02-05T19:11:40.855Z,2.66
2019-02-05T19:14:08.858Z,2.71
2019-02-05T19:16:36.878Z,2.68
2019-02-05T19:19:14.579Z,2.69
2019-02-05T19:21:36.926Z,2.57
2019-02-05T19:24:27.646Z,2.54
2019-02-05T19:26:55.747Z,2.56
2019-02-05T19:29:24.467Z,2.34
2019-02-05T19:31:53.062Z,2.24
2019-02-05T19:34:21.278Z,2.33
2019-02-05T19:36:49.982Z,2.22
2019-02-05T19:39:18.545Z,2.20
2019-02-05T19:41:48.074Z,2.17
2019-02-05T19:44:16.091Z,2.14
2019-02-05T19:47:02.248Z,2.07
2019-02-05T19:49:45.624Z,2.09
2019-02-05T19:52:13.904Z,2.11
2019-02-05T19:54:41.969Z,2.02
2019-02-05T19:57:10.097Z,1.86
2019-02-05T19:59:39.994Z,1.91
2019-02-05T20:02:09.438Z,1.95
2019-02-05T20:04:37.528Z,1.99
2019-02-05T20:07:06.699Z,1.93
2019-02-05T20:09:35.103Z,1.79
2019-02-05T20:12:03.693Z,1.80
2019-02-05T20:14:31.816Z,1.71
2019-02-05T20:17:00.237Z,1.72
2019-02-05T20:19:28.360Z,1.76
2019-02-05T20:21:56.407Z,1.78
2019-02-05T20:24:24.667Z,1.73
2019-02-05T20:26:53.891Z,1.78
2019-02-05T20:29:22.514Z,1.69
2019-02-05T20:31:50.611Z,1.78
2019-02-05T20:34:19.080Z,1.64
2019-02-05T20:36:47.666Z,1.68
2019-02-05T20:39:17.960Z,1.56
2019-02-05T20:41:46.020Z,1.53
2019-02-05T20:44:14.347Z,1.56
2019-02-05T20:46:42.441Z,1.50
2019-02-05T20:49:10.481Z,1.44
2019-02-05T20:51:38.485Z,1.33
2019-02-05T20:54:06.980Z,1.25
2019-02-05T20:56:35.280Z,1.23
2019-02-05T20:59:04.043Z,1.18
2019-02-05T21:01:32.252Z,1.17
2019-02-05T21:04:01.746Z,1.19
2019-02-05T21:06:30.300Z,1.21
2019-02-05T21:08:58.568Z,1.12
2019-02-05T21:11:27.044Z,1.02
2019-02-05T21:13:55.153Z,1.12
2019-02-05T21:16:23.241Z,1.36
2019-02-05T21:18:51.245Z,1.29
2019-02-05T21:21:19.606Z,1.20
2019-02-05T21:23:47.796Z,1.16
2019-02-05T21:26:16.002Z,1.03
2019-02-05T21:28:45.267Z,1.01
2019-02-05T21:31:14.809Z,1.02
2019-02-05T21:33:42.934Z,0.96
2019-02-05T21:36:11.229Z,0.84
2019-02-05T21:38:39.456Z,0.76
2019-02-05T21:41:07.581Z,0.77
2019-02-05T21:43:35.753Z,0.79
2019-02-05T21:46:04.184Z,0.84
2019-02-05T21:48:34.036Z,0.86
2019-02-05T21:51:02.358Z,0.86
2019-02-05T21:53:30.290Z,0.77
2019-02-05T21:55:58.395Z,0.77
2019-02-05T21:58:26.503Z,0.72
2019-02-05T22:00:54.501Z,0.81
2019-02-05T22:03:23.295Z,0.78
2019-02-05T22:05:54.062Z,0.63
2019-02-05T22:08:22.555Z,0.60
2019-02-05T22:10:50.718Z,0.62
2019-02-05T22:13:18.887Z,0.53
2019-02-05T22:15:46.998Z,0.46
2019-02-05T22:18:15.070Z,0.46
2019-02-05T22:20:44.473Z,0.53
2019-02-05T22:23:12.977Z,0.64
2019-02-05T22:25:40.996Z,0.68
2019-02-05T22:28:09.168Z,0.70
2019-02-05T22:30:37.404Z,0.87
2019-02-05T22:33:05.834Z,0.82
2019-02-05T22:35:34.591Z,0.64
2019-02-05T22:38:02.651Z,0.66
2019-02-05T22:40:30.690Z,0.60
2019-02-05T22:42:58.701Z,0.58
2019-02-05T22:45:28.825Z,0.62
2019-02-05T22:47:57.264Z,0.66
2019-02-05T22:50:27.768Z,0.59
2019-02-05T22:52:56.227Z,0.60
2019-02-05T22:55:24.537Z,0.64
2019-02-05T22:57:52.526Z,0.53
2019-02-05T23:00:51.042Z,0.54
2019-02-05T23:03:25.600Z,0.38
2019-02-05T23:06:44.637Z,0.33
2019-02-05T23:09:18.546Z,0.50
2019-02-05T23:12:27.589Z,0.50
2019-02-05T23:15:13.959Z,0.61
2019-02-05T23:17:42.133Z,0.60
2019-02-05T23:20:14.795Z,0.61
2019-02-05T23:22:43.013Z,0.63
2019-02-05T23:25:11.330Z,0.53
2019-02-05T23:27:39.496Z,0.45
2019-02-05T23:30:13.859Z,0.40
2019-02-05T23:32:41.983Z,0.33
2019-02-05T23:35:10.119Z,0.29
2019-02-05T23:37:38.263Z,0.21
2019-02-05T23:40:06.960Z,0.14
2019-02-05T23:42:35.219Z,0.15
2019-02-05T23:45:04.885Z,0.22
2019-02-05T23:47:33.086Z,0.21
2019-02-05T23:50:01.071Z,0.08
2019-02-05T23:52:29.149Z,-0.06
2019-02-05T23:54:57.073Z,-0.06
2019-02-05T23:57:25.198Z,-0.05
2019-02-05T23:59:53.157Z,-0.17
